sensor_id;sensor_type;location;lat;lon;timestamp;temperature;humidity
9668;DHT22;4872;48.316;10.650;2023-11-18T04:51:55;4.10;99.90
9668;DHT22;4872;48.316;10.650;2023-11-18T04:54:21;4.20;99.90
9668;DHT22;4872;48.316;10.650;2023-11-18T04:56:48;4.20;99.90
9668;DHT22;4872;48.316;10.650;2023-11-18T04:59:15;4.20;99.90
9668;DHT22;4872;48.316;10.650;2023-11-18T05:01:43;4.20;99.90
9668;DHT22;4872;48.316;10.650;2023-11-18T05:04:10;4.20;99.90
9668;DHT22;4872;48.316;10.650;2023-11-18T05:06:37;4.20;99.90
9668;DHT22;4872;48.316;10.650;2023-11-18T05:09:05;4.20;99.90
9668;DHT22;4872;48.316;10.650;2023-11-18T05:11:33;4.30;99.90
9668;DHT22;4872;48.316;10.650;2023-11-18T05:14:01;4.40;99.90
9668;DHT22;4872;48.316;10.650;2023-11-18T05:16:29;4.40;99.90
9668;DHT22;4872;48.316;10.650;2023-11-18T05:18:55;4.40;99.90
9668;DHT22;4872;48.316;10.650;2023-11-18T05:21:22;4.30;99.90
9668;DHT22;4872;48.316;10.650;2023-11-18T05:23:49;4.40;99.90
9668;DHT22;4872;48.316;10.650;2023-11-18T05:26:17;4.10;99.90
9668;DHT22;4872;48.316;10.650;2023-11-18T05:28:44;4.20;99.90
9668;DHT22;4872;48.316;10.650;2023-11-18T05:31:11;4.20;99.90
9668;DHT22;4872;48.316;10.650;2023-11-18T05:33:38;4.20;99.90
9668;DHT22;4872;48.316;10.650;2023-11-18T05:36:06;4.40;99.90
9668;DHT22;4872;48.316;10.650;2023-11-18T05:38:33;4.30;99.90
9668;DHT22;4872;48.316;10.650;2023-11-18T05:41:01;4.30;99.90
9668;DHT22;4872;48.316;10.650;2023-11-18T05:43:32;4.40;99.90
9668;DHT22;4872;48.316;10.650;2023-11-18T05:46:05;4.50;99.90
9668;DHT22;4872;48.316;10.650;2023-11-18T05:48:46;4.40;99.90
9668;DHT22;4872;48.316;10.650;2023-11-18T05:51:13;4.30;99.90
9668;DHT22;4872;48.316;10.650;2023-11-18T05:53:41;4.20;99.90
9668;DHT22;4872;48.316;10.650;2023-11-18T05:56:11;4.30;99.90
9668;DHT22;4872;48.316;10.650;2023-11-18T05:58:39;4.30;99.90
9668;DHT22;4872;48.316;10.650;2023-11-18T06:01:08;4.30;99.90
9668;DHT22;4872;48.316;10.650;2023-11-18T06:03:36;4.30;99.90
9668;DHT22;4872;48.316;10.650;2023-11-18T06:06:05;4.40;99.90
9668;DHT22;4872;48.316;10.650;2023-11-18T06:08:33;4.50;99.90
9668;DHT22;4872;48.316;10.650;2023-11-18T06:11:00;4.50;99.90
9668;DHT22;4872;48.316;10.650;2023-11-18T06:13:40;4.70;99.90
9668;DHT22;4872;48.316;10.650;2023-11-18T06:16:09;4.60;99.90
9668;DHT22;4872;48.316;10.650;2023-11-18T06:18:40;4.60;99.90
9668;DHT22;4872;48.316;10.650;2023-11-18T06:21:13;4.50;99.90
9668;DHT22;4872;48.316;10.650;2023-11-18T06:23:40;4.60;99.90
9668;DHT22;4872;48.316;10.650;2023-11-18T06:26:08;4.60;99.90
9668;DHT22;4872;48.316;10.650;2023-11-18T06:28:38;4.70;99.90
9668;DHT22;4872;48.316;10.650;2023-11-18T06:31:06;4.80;99.90
9668;DHT22;4872;48.316;10.650;2023-11-18T06:33:38;4.80;99.90
9668;DHT22;4872;48.316;10.650;2023-11-18T06:36:08;4.90;99.90
9668;DHT22;4872;48.316;10.650;2023-11-18T06:38:36;4.90;99.90
9668;DHT22;4872;48.316;10.650;2023-11-18T06:41:04;5.00;99.90
9668;DHT22;4872;48.316;10.650;2023-11-18T06:43:35;5.00;99.90
9668;DHT22;4872;48.316;10.650;2023-11-18T06:46:18;5.00;99.90
9668;DHT22;4872;48.316;10.650;2023-11-18T06:48:47;5.10;99.90
9668;DHT22;4872;48.316;10.650;2023-11-18T06:51:14;5.00;99.90
9668;DHT22;4872;48.316;10.650;2023-11-18T06:53:42;5.10;99.90
9668;DHT22;4872;48.316;10.650;2023-11-18T06:56:09;5.10;99.90
9668;DHT22;4872;48.316;10.650;2023-11-18T06:58:38;5.10;99.90
9668;DHT22;4872;48.316;10.650;2023-11-18T07:01:04;5.30;99.90
9668;DHT22;4872;48.316;10.650;2023-11-18T07:03:33;5.10;99.90
9668;DHT22;4872;48.316;10.650;2023-11-18T07:06:01;5.10;99.90
9668;DHT22;4872;48.316;10.650;2023-11-18T07:08:28;5.10;99.90
9668;DHT22;4872;48.316;10.650;2023-11-18T07:10:55;5.10;99.90
9668;DHT22;4872;48.316;10.650;2023-11-18T07:13:22;5.00;99.90
9668;DHT22;4872;48.316;10.650;2023-11-18T07:15:49;4.80;99.90
9668;DHT22;4872;48.316;10.650;2023-11-18T07:18:17;4.80;99.90
9668;DHT22;4872;48.316;10.650;2023-11-18T07:20:45;4.90;99.90
9668;DHT22;4872;48.316;10.650;2023-11-18T07:23:12;5.10;99.90
9668;DHT22;4872;48.316;10.650;2023-11-18T07:25:39;4.90;99.90
9668;DHT22;4872;48.316;10.650;2023-11-18T07:28:08;4.90;99.90
9668;DHT22;4872;48.316;10.650;2023-11-18T07:30:35;4.90;99.90
9668;DHT22;4872;48.316;10.650;2023-11-18T07:33:02;5.00;99.90
9668;DHT22;4872;48.316;10.650;2023-11-18T07:35:30;4.80;99.90
9668;DHT22;4872;48.316;10.650;2023-11-18T07:38:01;4.90;99.90
9668;DHT22;4872;48.316;10.650;2023-11-18T07:40:28;4.90;99.90
9668;DHT22;4872;48.316;10.650;2023-11-18T07:42:55;4.90;99.90
9668;DHT22;4872;48.316;10.650;2023-11-18T07:45:22;4.90;99.90
9668;DHT22;4872;48.316;10.650;2023-11-18T07:47:49;5.00;99.90
9668;DHT22;4872;48.316;10.650;2023-11-18T07:50:17;5.10;99.90
9668;DHT22;4872;48.316;10.650;2023-11-18T07:52:45;5.40;99.90
9668;DHT22;4872;48.316;10.650;2023-11-18T07:55:13;5.30;99.90
9668;DHT22;4872;48.316;10.650;2023-11-18T08:07:39;5.30;99.90
9668;DHT22;4872;48.316;10.650;2023-11-18T08:10:10;5.40;99.90
9668;DHT22;4872;48.316;10.650;2023-11-18T08:12:40;5.30;99.90
9668;DHT22;4872;48.316;10.650;2023-11-18T08:15:18;5.30;99.90
9668;DHT22;4872;48.316;10.650;2023-11-18T08:17:50;5.40;99.90
9668;DHT22;4872;48.316;10.650;2023-11-18T08:20:54;5.50;99.90
9668;DHT22;4872;48.316;10.650;2023-11-18T08:23:33;5.70;99.90
9668;DHT22;4872;48.316;10.650;2023-11-18T08:26:22;5.80;99.90
9668;DHT22;4872;48.316;10.650;2023-11-18T08:36:24;5.80;99.90
9668;DHT22;4872;48.316;10.650;2023-11-18T08:39:26;5.80;99.90
9668;DHT22;4872;48.316;10.650;2023-11-18T09:05:56;6.80;99.90
9668;DHT22;4872;48.316;10.650;2023-11-18T09:08:28;6.90;99.90
9668;DHT22;4872;48.316;10.650;2023-11-18T09:11:01;6.90;99.90
9668;DHT22;4872;48.316;10.650;2023-11-18T09:13:31;7.30;99.90
9668;DHT22;4872;48.316;10.650;2023-11-18T09:16:05;7.50;99.90
9668;DHT22;4872;48.316;10.650;2023-11-18T09:18:46;7.80;99.90
9668;DHT22;4872;48.316;10.650;2023-11-18T09:21:20;7.80;99.90
9668;DHT22;4872;48.316;10.650;2023-11-18T09:23:50;7.80;99.90
9668;DHT22;4872;48.316;10.650;2023-11-18T09:26:30;7.40;99.90
9668;DHT22;4872;48.316;10.650;2023-11-18T09:28:58;7.70;99.90
9668;DHT22;4872;48.316;10.650;2023-11-18T09:31:27;7.90;99.90
9668;DHT22;4872;48.316;10.650;2023-11-18T09:33:54;7.90;99.90
9668;DHT22;4872;48.316;10.650;2023-11-18T09:36:30;8.10;99.90
9668;DHT22;4872;48.316;10.650;2023-11-18T10:01:50;8.60;98.90
9668;DHT22;4872;48.316;10.650;2023-11-18T10:04:30;9.00;97.90
9668;DHT22;4872;48.316;10.650;2023-11-18T10:07:30;8.80;97.40
9668;DHT22;4872;48.316;10.650;2023-11-18T10:09:58;9.30;97.50
9668;DHT22;4872;48.316;10.650;2023-11-18T10:12:30;9.00;98.10
9668;DHT22;4872;48.316;10.650;2023-11-18T10:15:17;8.60;97.80
9668;DHT22;4872;48.316;10.650;2023-11-18T10:17:46;8.60;98.30
9668;DHT22;4872;48.316;10.650;2023-11-18T10:20:22;8.80;97.90
9668;DHT22;4872;48.316;10.650;2023-11-18T10:23:08;9.40;97.80
9668;DHT22;4872;48.316;10.650;2023-11-18T10:25:36;9.70;97.30
9668;DHT22;4872;48.316;10.650;2023-11-18T10:28:06;10.00;95.90
9668;DHT22;4872;48.316;10.650;2023-11-18T10:30:43;10.20;95.60
9668;DHT22;4872;48.316;10.650;2023-11-18T10:33:14;9.70;96.20
9668;DHT22;4872;48.316;10.650;2023-11-18T10:35:48;9.50;96.00
9668;DHT22;4872;48.316;10.650;2023-11-18T10:38:16;8.90;96.20
9668;DHT22;4872;48.316;10.650;2023-11-18T10:40:43;9.30;96.60
9668;DHT22;4872;48.316;10.650;2023-11-18T10:43:25;9.70;96.90
9668;DHT22;4872;48.316;10.650;2023-11-18T10:46:05;10.40;95.20
9668;DHT22;4872;48.316;10.650;2023-11-18T10:48:45;10.70;94.30
9668;DHT22;4872;48.316;10.650;2023-11-18T10:51:16;11.00;94.00
9668;DHT22;4872;48.316;10.650;2023-11-18T10:53:50;11.10;93.60
9668;DHT22;4872;48.316;10.650;2023-11-18T10:56:25;11.10;93.60
9668;DHT22;4872;48.316;10.650;2023-11-18T10:58:58;11.50;93.10
9668;DHT22;4872;48.316;10.650;2023-11-18T11:01:30;11.10;93.20
9668;DHT22;4872;48.316;10.650;2023-11-18T11:04:06;11.00;91.90
9668;DHT22;4872;48.316;10.650;2023-11-18T11:06:50;10.50;92.30
9668;DHT22;4872;48.316;10.650;2023-11-18T11:09:28;10.20;92.60
9668;DHT22;4872;48.316;10.650;2023-11-18T11:12:32;10.40;92.70
9668;DHT22;4872;48.316;10.650;2023-11-18T11:15:45;9.90;92.50
9668;DHT22;4872;48.316;10.650;2023-11-18T11:33:11;8.90;94.40
9668;DHT22;4872;48.316;10.650;2023-11-18T11:35:58;8.70;94.60
9668;DHT22;4872;48.316;10.650;2023-11-18T11:38:32;8.50;94.80
9668;DHT22;4872;48.316;10.650;2023-11-18T11:41:19;8.70;94.70
9668;DHT22;4872;48.316;10.650;2023-11-18T12:06:20;8.10;95.40
9668;DHT22;4872;48.316;10.650;2023-11-18T12:08:52;8.20;95.30
9668;DHT22;4872;48.316;10.650;2023-11-18T12:11:39;8.30;95.50
9668;DHT22;4872;48.316;10.650;2023-11-18T12:18:18;8.30;94.80
9668;DHT22;4872;48.316;10.650;2023-11-18T12:20:47;8.10;94.50
9668;DHT22;4872;48.316;10.650;2023-11-18T12:23:23;8.10;94.70
9668;DHT22;4872;48.316;10.650;2023-11-18T12:25:50;8.20;94.30
9668;DHT22;4872;48.316;10.650;2023-11-18T12:28:25;8.10;94.50
9668;DHT22;4872;48.316;10.650;2023-11-18T12:30:53;8.00;94.60
9668;DHT22;4872;48.316;10.650;2023-11-18T12:33:59;8.10;94.80
9668;DHT22;4872;48.316;10.650;2023-11-18T12:36:53;7.90;94.80
9668;DHT22;4872;48.316;10.650;2023-11-18T12:39:55;7.90;95.00
9668;DHT22;4872;48.316;10.650;2023-11-18T12:42:52;8.10;95.00
9668;DHT22;4872;48.316;10.650;2023-11-18T12:48:31;8.10;95.10
9668;DHT22;4872;48.316;10.650;2023-11-18T12:50:58;8.20;95.30
9668;DHT22;4872;48.316;10.650;2023-11-18T12:53:26;8.30;95.40
9668;DHT22;4872;48.316;10.650;2023-11-18T12:55:55;8.50;95.30
9668;DHT22;4872;48.316;10.650;2023-11-18T12:58:24;8.30;95.50
9668;DHT22;4872;48.316;10.650;2023-11-18T13:00:51;8.20;95.40
9668;DHT22;4872;48.316;10.650;2023-11-18T13:03:18;8.00;94.60
9668;DHT22;4872;48.316;10.650;2023-11-18T13:05:46;7.90;94.50
9668;DHT22;4872;48.316;10.650;2023-11-18T13:08:14;7.90;94.60
9668;DHT22;4872;48.316;10.650;2023-11-18T13:10:42;7.80;94.40
9668;DHT22;4872;48.316;10.650;2023-11-18T13:13:12;7.50;94.80
9668;DHT22;4872;48.316;10.650;2023-11-18T13:15:46;7.70;95.40
9668;DHT22;4872;48.316;10.650;2023-11-18T13:18:14;7.80;95.10
9668;DHT22;4872;48.316;10.650;2023-11-18T13:20:41;7.90;94.90
9668;DHT22;4872;48.316;10.650;2023-11-18T13:23:09;7.90;94.70
9668;DHT22;4872;48.316;10.650;2023-11-18T13:25:36;7.90;94.80
9668;DHT22;4872;48.316;10.650;2023-11-18T13:28:04;8.00;95.00
9668;DHT22;4872;48.316;10.650;2023-11-18T13:30:33;8.00;94.60
9668;DHT22;4872;48.316;10.650;2023-11-18T13:33:00;8.00;94.80
9668;DHT22;4872;48.316;10.650;2023-11-18T13:35:29;7.90;94.70
9668;DHT22;4872;48.316;10.650;2023-11-18T13:37:56;7.90;94.90
9668;DHT22;4872;48.316;10.650;2023-11-18T13:40:24;8.00;95.10
9668;DHT22;4872;48.316;10.650;2023-11-18T13:43:02;8.10;95.10
9668;DHT22;4872;48.316;10.650;2023-11-18T13:45:31;8.20;94.90
9668;DHT22;4872;48.316;10.650;2023-11-18T13:48:00;8.40;94.70
9668;DHT22;4872;48.316;10.650;2023-11-18T13:50:27;8.40;94.70
9668;DHT22;4872;48.316;10.650;2023-11-18T13:52:56;8.30;94.60
9668;DHT22;4872;48.316;10.650;2023-11-18T13:55:24;8.30;94.60
9668;DHT22;4872;48.316;10.650;2023-11-18T13:57:53;8.20;94.80
9668;DHT22;4872;48.316;10.650;2023-11-18T14:00:23;8.00;94.90
9668;DHT22;4872;48.316;10.650;2023-11-18T14:02:53;8.00;95.10
9668;DHT22;4872;48.316;10.650;2023-11-18T14:05:23;8.00;95.20
9668;DHT22;4872;48.316;10.650;2023-11-18T14:07:52;8.10;95.10
9668;DHT22;4872;48.316;10.650;2023-11-18T14:10:21;8.10;95.10
9668;DHT22;4872;48.316;10.650;2023-11-18T14:13:01;8.10;95.20
9668;DHT22;4872;48.316;10.650;2023-11-18T14:15:31;8.10;95.40
9668;DHT22;4872;48.316;10.650;2023-11-18T14:18:01;8.10;95.40
9668;DHT22;4872;48.316;10.650;2023-11-18T14:20:29;8.00;95.30
9668;DHT22;4872;48.316;10.650;2023-11-18T14:22:57;8.00;95.40
9668;DHT22;4872;48.316;10.650;2023-11-18T14:25:24;8.00;95.40
9668;DHT22;4872;48.316;10.650;2023-11-18T14:27:53;8.00;95.50
9668;DHT22;4872;48.316;10.650;2023-11-18T14:30:21;8.00;95.60
9668;DHT22;4872;48.316;10.650;2023-11-18T14:32:50;8.10;95.90
9668;DHT22;4872;48.316;10.650;2023-11-18T14:35:16;7.90;95.70
9668;DHT22;4872;48.316;10.650;2023-11-18T14:37:45;7.80;95.80
9668;DHT22;4872;48.316;10.650;2023-11-18T14:40:13;7.80;96.20
9668;DHT22;4872;48.316;10.650;2023-11-18T14:42:45;7.70;96.00
9668;DHT22;4872;48.316;10.650;2023-11-18T14:45:14;7.60;96.00
9668;DHT22;4872;48.316;10.650;2023-11-18T14:47:43;7.70;96.20
9668;DHT22;4872;48.316;10.650;2023-11-18T14:50:11;7.70;96.10
9668;DHT22;4872;48.316;10.650;2023-11-18T14:52:45;7.70;96.30
9668;DHT22;4872;48.316;10.650;2023-11-18T14:55:13;7.60;96.20
9668;DHT22;4872;48.316;10.650;2023-11-18T14:57:43;7.60;96.40
9668;DHT22;4872;48.316;10.650;2023-11-18T15:00:11;7.60;96.50
9668;DHT22;4872;48.316;10.650;2023-11-18T15:02:45;7.50;96.60
9668;DHT22;4872;48.316;10.650;2023-11-18T15:05:13;7.40;96.70
9668;DHT22;4872;48.316;10.650;2023-11-18T15:07:47;7.30;96.90
9668;DHT22;4872;48.316;10.650;2023-11-18T15:10:15;7.20;97.00
9668;DHT22;4872;48.316;10.650;2023-11-18T15:12:52;7.30;97.10
9668;DHT22;4872;48.316;10.650;2023-11-18T15:15:21;7.30;96.90
9668;DHT22;4872;48.316;10.650;2023-11-18T15:17:48;7.40;96.90
9668;DHT22;4872;48.316;10.650;2023-11-18T15:20:16;7.40;97.00
9668;DHT22;4872;48.316;10.650;2023-11-18T15:22:46;7.30;96.90
9668;DHT22;4872;48.316;10.650;2023-11-18T15:25:13;7.30;96.90
9668;DHT22;4872;48.316;10.650;2023-11-18T15:27:43;7.30;97.00
9668;DHT22;4872;48.316;10.650;2023-11-18T15:30:11;7.20;97.00
9668;DHT22;4872;48.316;10.650;2023-11-18T15:32:39;7.00;97.20
9668;DHT22;4872;48.316;10.650;2023-11-18T15:35:07;7.00;97.20
9668;DHT22;4872;48.316;10.650;2023-11-18T15:37:37;7.00;97.30
9668;DHT22;4872;48.316;10.650;2023-11-18T15:40:07;7.00;97.10
9668;DHT22;4872;48.316;10.650;2023-11-18T15:42:37;7.10;97.40
9668;DHT22;4872;48.316;10.650;2023-11-18T15:45:07;7.10;97.30
9668;DHT22;4872;48.316;10.650;2023-11-18T15:47:36;7.00;97.20
9668;DHT22;4872;48.316;10.650;2023-11-18T15:50:04;7.00;97.10
9668;DHT22;4872;48.316;10.650;2023-11-18T15:52:33;7.00;97.20
9668;DHT22;4872;48.316;10.650;2023-11-18T15:55:02;6.90;97.10
9668;DHT22;4872;48.316;10.650;2023-11-18T15:57:37;6.90;96.90
9668;DHT22;4872;48.316;10.650;2023-11-18T16:00:06;6.90;97.00
9668;DHT22;4872;48.316;10.650;2023-11-18T16:02:35;6.80;96.90
9668;DHT22;4872;48.316;10.650;2023-11-18T16:05:02;6.80;96.70
9668;DHT22;4872;48.316;10.650;2023-11-18T16:07:32;6.80;96.70
9668;DHT22;4872;48.316;10.650;2023-11-18T16:10:03;6.70;97.00
9668;DHT22;4872;48.316;10.650;2023-11-18T16:12:30;6.70;96.80
9668;DHT22;4872;48.316;10.650;2023-11-18T16:15:00;6.90;96.60
9668;DHT22;4872;48.316;10.650;2023-11-18T16:17:27;6.90;96.70
9668;DHT22;4872;48.316;10.650;2023-11-18T16:19:54;6.80;96.40
9668;DHT22;4872;48.316;10.650;2023-11-18T16:22:21;6.80;96.30
9668;DHT22;4872;48.316;10.650;2023-11-18T16:24:48;6.80;96.00
9668;DHT22;4872;48.316;10.650;2023-11-18T16:27:15;6.80;96.10
9668;DHT22;4872;48.316;10.650;2023-11-18T16:29:43;6.80;96.10
9668;DHT22;4872;48.316;10.650;2023-11-18T16:32:12;6.80;96.20
9668;DHT22;4872;48.316;10.650;2023-11-18T16:34:39;6.70;96.30
9668;DHT22;4872;48.316;10.650;2023-11-18T16:37:06;6.60;96.30
9668;DHT22;4872;48.316;10.650;2023-11-18T16:39:33;6.70;96.50
9668;DHT22;4872;48.316;10.650;2023-11-18T16:41:59;6.60;96.50
9668;DHT22;4872;48.316;10.650;2023-11-18T16:44:26;6.70;96.60
9668;DHT22;4872;48.316;10.650;2023-11-18T16:46:53;6.50;96.70
9668;DHT22;4872;48.316;10.650;2023-11-18T16:49:22;6.60;96.90
9668;DHT22;4872;48.316;10.650;2023-11-18T16:51:49;6.50;96.70
9668;DHT22;4872;48.316;10.650;2023-11-18T16:54:20;6.40;96.80
9668;DHT22;4872;48.316;10.650;2023-11-18T16:56:47;6.50;96.70
9668;DHT22;4872;48.316;10.650;2023-11-18T16:59:14;6.50;96.60
9668;DHT22;4872;48.316;10.650;2023-11-18T17:01:43;6.60;96.60
9668;DHT22;4872;48.316;10.650;2023-11-18T17:04:10;6.60;96.60
9668;DHT22;4872;48.316;10.650;2023-11-18T17:06:41;6.60;96.60
9668;DHT22;4872;48.316;10.650;2023-11-18T17:09:10;6.60;96.70
9668;DHT22;4872;48.316;10.650;2023-11-18T17:11:37;6.60;96.80
9668;DHT22;4872;48.316;10.650;2023-11-18T17:14:04;6.70;96.50
9668;DHT22;4872;48.316;10.650;2023-11-18T17:16:31;6.70;96.50
9668;DHT22;4872;48.316;10.650;2023-11-18T17:18:58;6.70;96.60
9668;DHT22;4872;48.316;10.650;2023-11-18T17:21:25;6.80;96.70
9668;DHT22;4872;48.316;10.650;2023-11-18T17:23:57;6.80;96.70
9668;DHT22;4872;48.316;10.650;2023-11-18T17:26:25;6.70;96.70
9668;DHT22;4872;48.316;10.650;2023-11-18T17:28:52;6.80;96.30
9668;DHT22;4872;48.316;10.650;2023-11-18T17:31:19;6.70;95.90
9668;DHT22;4872;48.316;10.650;2023-11-18T17:33:46;6.60;96.20
9668;DHT22;4872;48.316;10.650;2023-11-18T17:36:13;6.60;95.90
9668;DHT22;4872;48.316;10.650;2023-11-18T17:38:40;6.60;95.90
9668;DHT22;4872;48.316;10.650;2023-11-18T17:41:10;6.60;96.00
9668;DHT22;4872;48.316;10.650;2023-11-18T17:43:37;6.70;96.20
9668;DHT22;4872;48.316;10.650;2023-11-18T17:46:05;6.70;96.20
9668;DHT22;4872;48.316;10.650;2023-11-18T17:48:35;6.70;96.40
9668;DHT22;4872;48.316;10.650;2023-11-18T17:51:10;6.70;96.60
9668;DHT22;4872;48.316;10.650;2023-11-18T17:53:39;6.70;96.90
9668;DHT22;4872;48.316;10.650;2023-11-18T17:56:07;6.70;97.10
9668;DHT22;4872;48.316;10.650;2023-11-18T17:58:35;6.70;97.20
9668;DHT22;4872;48.316;10.650;2023-11-18T18:01:03;6.70;97.30
9668;DHT22;4872;48.316;10.650;2023-11-18T18:03:34;6.70;97.10
9668;DHT22;4872;48.316;10.650;2023-11-18T18:06:01;6.70;97.20
9668;DHT22;4872;48.316;10.650;2023-11-18T18:08:52;6.70;97.40
9668;DHT22;4872;48.316;10.650;2023-11-18T18:11:33;6.60;97.50
9668;DHT22;4872;48.316;10.650;2023-11-18T18:14:17;6.60;97.60
9668;DHT22;4872;48.316;10.650;2023-11-18T18:16:47;6.50;98.10
9668;DHT22;4872;48.316;10.650;2023-11-18T18:19:30;6.50;97.80
9668;DHT22;4872;48.316;10.650;2023-11-18T18:21:57;6.60;98.20
9668;DHT22;4872;48.316;10.650;2023-11-18T18:24:24;6.50;98.30
9668;DHT22;4872;48.316;10.650;2023-11-18T18:26:54;6.50;98.50
9668;DHT22;4872;48.316;10.650;2023-11-18T18:29:22;6.50;98.90
9668;DHT22;4872;48.316;10.650;2023-11-18T18:31:49;6.50;98.80
9668;DHT22;4872;48.316;10.650;2023-11-18T18:34:16;6.60;98.80
9668;DHT22;4872;48.316;10.650;2023-11-18T18:36:43;6.60;98.90
9668;DHT22;4872;48.316;10.650;2023-11-18T18:39:10;6.70;99.10
9668;DHT22;4872;48.316;10.650;2023-11-18T18:41:37;6.40;98.90
9668;DHT22;4872;48.316;10.650;2023-11-18T18:44:05;6.60;99.00
9668;DHT22;4872;48.316;10.650;2023-11-18T18:46:33;6.60;98.90
9668;DHT22;4872;48.316;10.650;2023-11-18T18:49:00;6.60;98.80
9668;DHT22;4872;48.316;10.650;2023-11-18T18:51:27;6.60;98.80
9668;DHT22;4872;48.316;10.650;2023-11-18T18:53:56;6.50;98.60
9668;DHT22;4872;48.316;10.650;2023-11-18T18:56:24;6.50;98.80
9668;DHT22;4872;48.316;10.650;2023-11-18T18:58:51;6.50;99.00
9668;DHT22;4872;48.316;10.650;2023-11-18T19:01:21;6.50;99.10
9668;DHT22;4872;48.316;10.650;2023-11-18T19:03:49;6.40;99.10
9668;DHT22;4872;48.316;10.650;2023-11-18T19:06:18;6.30;99.00
9668;DHT22;4872;48.316;10.650;2023-11-18T19:08:45;6.30;99.00
9668;DHT22;4872;48.316;10.650;2023-11-18T19:11:12;6.30;98.90
9668;DHT22;4872;48.316;10.650;2023-11-18T19:13:40;6.20;98.80
9668;DHT22;4872;48.316;10.650;2023-11-18T19:16:07;6.30;98.90
9668;DHT22;4872;48.316;10.650;2023-11-18T19:18:35;6.30;98.80
9668;DHT22;4872;48.316;10.650;2023-11-18T19:21:06;6.30;98.70
9668;DHT22;4872;48.316;10.650;2023-11-18T19:23:33;6.30;98.70
9668;DHT22;4872;48.316;10.650;2023-11-18T19:26:00;6.30;98.30
9668;DHT22;4872;48.316;10.650;2023-11-18T19:28:28;6.30;98.40
9668;DHT22;4872;48.316;10.650;2023-11-18T19:30:55;6.30;98.30
9668;DHT22;4872;48.316;10.650;2023-11-18T19:33:21;6.40;98.10
9668;DHT22;4872;48.316;10.650;2023-11-18T19:35:48;6.40;98.30
9668;DHT22;4872;48.316;10.650;2023-11-18T19:38:16;6.30;98.40
9668;DHT22;4872;48.316;10.650;2023-11-18T19:40:43;6.40;98.70
9668;DHT22;4872;48.316;10.650;2023-11-18T19:43:10;6.40;99.00
9668;DHT22;4872;48.316;10.650;2023-11-18T19:45:38;6.30;99.30
9668;DHT22;4872;48.316;10.650;2023-11-18T19:48:05;6.20;99.80
9668;DHT22;4872;48.316;10.650;2023-11-18T19:50:32;6.20;99.90
9668;DHT22;4872;48.316;10.650;2023-11-18T19:52:59;6.20;99.90
9668;DHT22;4872;48.316;10.650;2023-11-18T19:55:27;6.20;99.90
9668;DHT22;4872;48.316;10.650;2023-11-18T19:57:54;6.20;99.90
9668;DHT22;4872;48.316;10.650;2023-11-18T20:00:21;6.10;99.90
9668;DHT22;4872;48.316;10.650;2023-11-18T20:02:51;6.10;99.90
9668;DHT22;4872;48.316;10.650;2023-11-18T20:05:18;6.00;99.90
9668;DHT22;4872;48.316;10.650;2023-11-18T20:07:45;5.90;99.90
9668;DHT22;4872;48.316;10.650;2023-11-18T20:10:12;6.00;99.90
9668;DHT22;4872;48.316;10.650;2023-11-18T20:12:40;6.00;99.90
9668;DHT22;4872;48.316;10.650;2023-11-18T20:15:08;6.10;99.90
9668;DHT22;4872;48.316;10.650;2023-11-18T20:17:36;5.90;99.90
9668;DHT22;4872;48.316;10.650;2023-11-18T20:20:04;5.80;99.90
9668;DHT22;4872;48.316;10.650;2023-11-18T20:22:33;5.80;99.90
9668;DHT22;4872;48.316;10.650;2023-11-18T20:25:01;5.80;99.90
9668;DHT22;4872;48.316;10.650;2023-11-18T20:27:27;5.70;99.90
9668;DHT22;4872;48.316;10.650;2023-11-18T20:29:56;5.70;99.90
9668;DHT22;4872;48.316;10.650;2023-11-18T20:32:23;5.60;99.90
9668;DHT22;4872;48.316;10.650;2023-11-18T20:34:49;5.80;99.90
9668;DHT22;4872;48.316;10.650;2023-11-18T20:37:16;5.70;99.90
9668;DHT22;4872;48.316;10.650;2023-11-18T20:39:43;5.70;99.90
9668;DHT22;4872;48.316;10.650;2023-11-18T20:42:10;5.70;99.90
9668;DHT22;4872;48.316;10.650;2023-11-18T20:44:38;5.70;99.90
9668;DHT22;4872;48.316;10.650;2023-11-18T20:47:06;5.60;99.90
9668;DHT22;4872;48.316;10.650;2023-11-18T20:49:33;5.70;99.90
9668;DHT22;4872;48.316;10.650;2023-11-18T20:52:00;5.70;99.90
9668;DHT22;4872;48.316;10.650;2023-11-18T20:54:27;5.70;99.90
9668;DHT22;4872;48.316;10.650;2023-11-18T20:56:54;5.60;99.90
9668;DHT22;4872;48.316;10.650;2023-11-18T20:59:21;5.60;99.90
9668;DHT22;4872;48.316;10.650;2023-11-18T21:01:49;5.70;99.90
9668;DHT22;4872;48.316;10.650;2023-11-18T21:04:17;5.70;99.90
9668;DHT22;4872;48.316;10.650;2023-11-18T21:06:45;5.80;99.90
9668;DHT22;4872;48.316;10.650;2023-11-18T21:09:12;5.70;99.90
9668;DHT22;4872;48.316;10.650;2023-11-18T21:11:39;5.70;99.90
9668;DHT22;4872;48.316;10.650;2023-11-18T21:14:06;5.70;99.90
9668;DHT22;4872;48.316;10.650;2023-11-18T21:16:33;5.60;99.90
9668;DHT22;4872;48.316;10.650;2023-11-18T21:19:00;5.70;99.90
9668;DHT22;4872;48.316;10.650;2023-11-18T21:21:30;5.70;99.90
9668;DHT22;4872;48.316;10.650;2023-11-18T21:23:57;5.80;99.90
9668;DHT22;4872;48.316;10.650;2023-11-18T21:26:28;5.90;99.90
9668;DHT22;4872;48.316;10.650;2023-11-18T21:28:56;5.90;99.90
9668;DHT22;4872;48.316;10.650;2023-11-18T21:31:23;5.80;99.90
9668;DHT22;4872;48.316;10.650;2023-11-18T21:33:50;5.90;99.90
9668;DHT22;4872;48.316;10.650;2023-11-18T21:36:18;5.80;99.90
9668;DHT22;4872;48.316;10.650;2023-11-18T21:38:46;5.90;99.90
9668;DHT22;4872;48.316;10.650;2023-11-18T21:41:13;5.90;99.90
9668;DHT22;4872;48.316;10.650;2023-11-18T21:43:40;5.90;99.90
9668;DHT22;4872;48.316;10.650;2023-11-18T21:46:07;5.90;99.90
9668;DHT22;4872;48.316;10.650;2023-11-18T21:48:34;5.90;99.90
9668;DHT22;4872;48.316;10.650;2023-11-18T21:51:01;5.90;99.90
9668;DHT22;4872;48.316;10.650;2023-11-18T21:53:28;5.90;99.90
9668;DHT22;4872;48.316;10.650;2023-11-18T21:55:56;5.90;99.90
9668;DHT22;4872;48.316;10.650;2023-11-18T21:58:25;5.90;99.90
9668;DHT22;4872;48.316;10.650;2023-11-18T22:00:52;6.00;99.90
9668;DHT22;4872;48.316;10.650;2023-11-18T22:03:19;6.10;99.90
9668;DHT22;4872;48.316;10.650;2023-11-18T22:05:46;6.00;99.90
9668;DHT22;4872;48.316;10.650;2023-11-18T22:08:15;5.90;99.90
9668;DHT22;4872;48.316;10.650;2023-11-18T22:10:47;6.00;99.90
9668;DHT22;4872;48.316;10.650;2023-11-18T22:13:15;6.10;99.90
9668;DHT22;4872;48.316;10.650;2023-11-18T22:15:42;6.00;99.90
9668;DHT22;4872;48.316;10.650;2023-11-18T22:18:09;6.10;99.90
9668;DHT22;4872;48.316;10.650;2023-11-18T22:20:36;5.80;99.90
9668;DHT22;4872;48.316;10.650;2023-11-18T22:23:03;5.80;99.90
9668;DHT22;4872;48.316;10.650;2023-11-18T22:25:31;5.90;99.90
9668;DHT22;4872;48.316;10.650;2023-11-18T22:27:58;5.80;99.90
9668;DHT22;4872;48.316;10.650;2023-11-18T22:30:29;5.80;99.90
9668;DHT22;4872;48.316;10.650;2023-11-18T22:32:58;5.80;99.90
9668;DHT22;4872;48.316;10.650;2023-11-18T22:35:28;5.70;99.90
9668;DHT22;4872;48.316;10.650;2023-11-18T22:37:56;5.70;99.90
9668;DHT22;4872;48.316;10.650;2023-11-18T22:40:25;5.70;99.90
9668;DHT22;4872;48.316;10.650;2023-11-18T22:42:52;5.70;99.90
9668;DHT22;4872;48.316;10.650;2023-11-18T22:45:19;5.80;99.90
9668;DHT22;4872;48.316;10.650;2023-11-18T22:47:48;5.80;99.90
9668;DHT22;4872;48.316;10.650;2023-11-18T22:50:16;5.80;99.90
9668;DHT22;4872;48.316;10.650;2023-11-18T22:52:43;5.80;99.90
9668;DHT22;4872;48.316;10.650;2023-11-18T22:55:10;5.90;99.90
9668;DHT22;4872;48.316;10.650;2023-11-18T22:57:37;5.90;99.90
9668;DHT22;4872;48.316;10.650;2023-11-18T23:00:07;5.80;99.90